Sun Universe — 3FOQ4 — position and weather

sailwx.info

Track history (hours):
 
Tides and Currents Weather Stations Pressure Air Temp Water Temp Dewpoint Dewpoint Depression Visibility Wind Speed Wind Dir Waves Ship Positions

Sun Universe

Last reported at 2016-Jul-25 00:26 UTC. Time now 2016-Jul-25 10:03 UTC.
Position N 22°56' E 116°55'.

Length 117 m; draft 8.6 m.

Type: Cargo ship. MMSI: 371647000.

Date/timePositionNaut miles runAvg speedWind from/ knotsBaromVisibWave heightAir tempDewpointWater temp
2016-Jul-25 00:26N 22°56' E 116°55'1613.5
2016-Jul-24 23:13N 23°05' E 117°11'6313.4
2016-Jul-24 18:30N 23°44' E 118°05'1212.3
2016-Jul-24 17:30N 23°51' E 118°16'1212.0
2016-Jul-24 16:32N 23°57' E 118°26'1111.5
2016-Jul-24 15:33N 24°04' E 118°37'1211.6
2016-Jul-24 14:33N 24°10' E 118°47'1111.0
2016-Jul-24 13:33N 24°17' E 118°57'1110.8
2016-Jul-24 12:32N 24°23' E 119°07'1111.1
2016-Jul-24 11:33N 24°30' E 119°17'1511.3
2016-Jul-24 10:13N 24°38' E 119°30'2111.9
2016-Jul-24 08:25N 24°51' E 119°49'2211.5
2016-Jul-24 06:33N 25°03' E 120°09'  
2016-Jul-15 00:33N 24°19' E 119°01'  
Track history (hours):
 
Tides and Currents Weather Stations Pressure Air Temp Water Temp Dewpoint Dewpoint Depression Visibility Wind Speed Wind Dir Waves Ship Positions

Sun Universe

Last reported at 2016-Jul-25 00:26 UTC. Time now 2016-Jul-25 10:03 UTC.
Position N 22°56' E 116°55'.

Length 117 m; draft 8.6 m.

Type: Cargo ship. MMSI: 371647000.

Date/timePositionNaut miles runAvg speedWind from/ knotsBaromVisibWave heightAir tempDewpointWater temp
2016-Jul-25 00:26N 22°56' E 116°55'1613.5
2016-Jul-24 23:13N 23°05' E 117°11'6313.4
2016-Jul-24 18:30N 23°44' E 118°05'1212.3
2016-Jul-24 17:30N 23°51' E 118°16'1212.0
2016-Jul-24 16:32N 23°57' E 118°26'1111.5
2016-Jul-24 15:33N 24°04' E 118°37'1211.6
2016-Jul-24 14:33N 24°10' E 118°47'1111.0
2016-Jul-24 13:33N 24°17' E 118°57'1110.8
2016-Jul-24 12:32N 24°23' E 119°07'1111.1
2016-Jul-24 11:33N 24°30' E 119°17'1511.3
2016-Jul-24 10:13N 24°38' E 119°30'2111.9
2016-Jul-24 08:25N 24°51' E 119°49'2211.5
2016-Jul-24 06:33N 25°03' E 120°09'  
2016-Jul-15 00:33N 24°19' E 119°01'  

Dump ship's entire track history